createdAt,value
2022-11-07T00:00:49.770Z,100.00
2022-11-07T00:03:56.167Z,100.00
2022-11-07T00:07:02.530Z,100.00
2022-11-07T00:10:08.690Z,100.00
2022-11-07T00:13:14.385Z,100.00
2022-11-07T00:16:20.810Z,100.00
2022-11-07T00:19:26.624Z,100.00
2022-11-07T00:22:32.491Z,100.00
2022-11-07T00:25:38.165Z,100.00
2022-11-07T00:28:44.845Z,100.00
2022-11-07T00:31:50.795Z,100.00
2022-11-07T00:34:56.172Z,100.00
2022-11-07T00:38:01.688Z,100.00
2022-11-07T00:41:07.890Z,100.00
2022-11-07T00:44:12.946Z,100.00
2022-11-07T00:47:18.357Z,100.00
2022-11-07T00:50:24.175Z,100.00
2022-11-07T00:53:30.070Z,100.00
2022-11-07T00:56:35.547Z,100.00
2022-11-07T00:59:40.974Z,100.00
2022-11-07T01:03:06.521Z,100.00
2022-11-07T01:06:12.376Z,100.00
2022-11-07T01:09:21.396Z,100.00
2022-11-07T01:12:27.054Z,100.00
2022-11-07T01:15:32.310Z,100.00
2022-11-07T01:18:38.052Z,100.00
2022-11-07T01:21:44.223Z,100.00
2022-11-07T01:24:49.910Z,100.00
2022-11-07T01:27:55.552Z,100.00
2022-11-07T01:31:09.775Z,100.00
2022-11-07T01:34:15.208Z,100.00
2022-11-07T01:37:20.857Z,100.00
2022-11-07T01:40:26.641Z,100.00
2022-11-07T01:43:55.634Z,100.00
2022-11-07T01:47:02.454Z,100.00
2022-11-07T01:50:09.545Z,100.00
2022-11-07T01:53:15.400Z,100.00
2022-11-07T01:56:26.495Z,100.00
2022-11-07T01:59:34.466Z,100.00
2022-11-07T02:02:41.364Z,100.00
2022-11-07T02:05:57.841Z,100.00
2022-11-07T02:09:03.898Z,100.00
2022-11-07T02:12:09.404Z,100.00
2022-11-07T02:15:14.954Z,100.00
2022-11-07T02:18:22.913Z,100.00
2022-11-07T02:21:40.676Z,100.00
2022-11-07T02:24:49.965Z,100.00
2022-11-07T02:28:00.551Z,100.00
2022-11-07T02:31:06.000Z,100.00
2022-11-07T02:34:11.663Z,100.00
2022-11-07T02:37:27.686Z,100.00
2022-11-07T02:40:34.438Z,100.00
2022-11-07T02:43:47.391Z,100.00
2022-11-07T02:46:53.193Z,100.00
2022-11-07T02:49:58.225Z,100.00
2022-11-07T02:53:04.232Z,100.00
2022-11-07T02:56:10.381Z,100.00
2022-11-07T02:59:16.026Z,100.00
2022-11-07T03:02:21.628Z,100.00
2022-11-07T03:05:27.424Z,100.00
2022-11-07T03:08:32.575Z,100.00
2022-11-07T03:11:38.291Z,100.00
2022-11-07T03:14:43.930Z,100.00
2022-11-07T03:17:49.626Z,100.00
2022-11-07T03:20:55.275Z,100.00
2022-11-07T03:24:01.105Z,100.00
2022-11-07T03:27:06.930Z,100.00
2022-11-07T03:30:12.855Z,100.00
2022-11-07T03:33:18.409Z,100.00
2022-11-07T03:36:24.307Z,100.00
2022-11-07T03:39:29.462Z,100.00
2022-11-07T03:42:39.966Z,100.00
2022-11-07T03:45:45.493Z,100.00
2022-11-07T03:48:50.775Z,100.00
2022-11-07T03:51:56.323Z,100.00
2022-11-07T03:55:01.773Z,100.00
2022-11-07T03:58:07.505Z,100.00
2022-11-07T04:01:14.010Z,100.00
2022-11-07T04:04:19.609Z,100.00
2022-11-07T04:07:25.046Z,100.00
2022-11-07T04:10:31.021Z,100.00
2022-11-07T04:13:55.314Z,100.00
2022-11-07T04:17:19.911Z,100.00
2022-11-07T04:20:25.785Z,100.00
2022-11-07T04:23:31.737Z,100.00
2022-11-07T04:26:55.712Z,100.00
2022-11-07T04:30:22.164Z,100.00
2022-11-07T04:33:27.615Z,100.00
2022-11-07T04:36:33.016Z,100.00
2022-11-07T04:39:38.816Z,100.00
2022-11-07T04:42:46.353Z,100.00
2022-11-07T04:45:52.786Z,100.00
2022-11-07T04:48:58.294Z,100.00
2022-11-07T04:52:03.479Z,100.00
2022-11-07T04:55:16.990Z,100.00
2022-11-07T04:58:22.590Z,100.00
2022-11-07T05:01:28.167Z,100.00
2022-11-07T05:04:33.862Z,100.00
2022-11-07T05:07:40.456Z,100.00
2022-11-07T05:10:46.081Z,100.00
2022-11-07T05:13:51.531Z,100.00
2022-11-07T05:16:58.308Z,100.00
2022-11-07T05:20:05.139Z,100.00
2022-11-07T05:23:16.265Z,100.00
2022-11-07T05:26:22.445Z,100.00
2022-11-07T05:29:27.835Z,100.00
2022-11-07T05:32:38.809Z,100.00
2022-11-07T05:35:45.718Z,100.00
2022-11-07T05:38:53.911Z,100.00
2022-11-07T05:42:02.013Z,100.00
2022-11-07T05:45:09.159Z,100.00
2022-11-07T05:48:14.861Z,100.00
2022-11-07T05:51:20.281Z,100.00
2022-11-07T05:54:28.337Z,100.00
2022-11-07T05:57:33.720Z,100.00
2022-11-07T06:00:40.754Z,100.00
2022-11-07T06:03:46.473Z,100.00
2022-11-07T06:06:51.939Z,100.00
2022-11-07T06:09:57.594Z,100.00
2022-11-07T06:13:06.004Z,100.00
2022-11-07T06:16:11.593Z,100.00
2022-11-07T06:19:17.408Z,100.00
2022-11-07T06:22:25.212Z,100.00
2022-11-07T06:25:31.597Z,100.00
2022-11-07T06:28:38.209Z,100.00
2022-11-07T06:31:43.896Z,100.00
2022-11-07T06:34:49.534Z,100.00
2022-11-07T06:37:55.237Z,100.00
2022-11-07T06:41:09.109Z,100.00
2022-11-07T06:44:14.935Z,100.00
2022-11-07T06:47:21.281Z,100.00
2022-11-07T06:50:26.929Z,100.00
2022-11-07T06:53:33.133Z,100.00
2022-11-07T06:56:38.757Z,100.00
2022-11-07T06:59:50.463Z,100.00
2022-11-07T07:02:59.075Z,100.00
2022-11-07T07:06:08.009Z,100.00
2022-11-07T07:09:13.358Z,100.00
2022-11-07T07:12:18.479Z,100.00
2022-11-07T07:15:24.619Z,100.00
2022-11-07T07:18:32.120Z,100.00
2022-11-07T07:21:37.723Z,100.00
2022-11-07T07:24:43.347Z,100.00
2022-11-07T07:27:49.265Z,100.00
2022-11-07T07:31:15.639Z,100.00
2022-11-07T07:34:20.927Z,100.00
2022-11-07T07:37:26.883Z,100.00
2022-11-07T07:40:32.729Z,100.00
2022-11-07T07:43:38.643Z,100.00
2022-11-07T07:46:44.525Z,100.00
2022-11-07T07:49:50.216Z,100.00
2022-11-07T07:53:02.506Z,100.00
2022-11-07T07:56:11.366Z,100.00
2022-11-07T07:59:17.577Z,100.00
2022-11-07T08:02:23.711Z,100.00
2022-11-07T08:05:29.336Z,100.00
2022-11-07T08:08:38.143Z,100.00
2022-11-07T08:11:44.479Z,100.00
2022-11-07T08:14:50.380Z,100.00
2022-11-07T08:17:56.018Z,100.00
2022-11-07T08:21:01.252Z,100.00
2022-11-07T08:24:07.356Z,100.00
2022-11-07T08:27:12.617Z,100.00
2022-11-07T08:30:18.409Z,100.00
2022-11-07T08:33:24.904Z,100.00
2022-11-07T08:36:30.477Z,100.00
2022-11-07T08:39:36.043Z,100.00
2022-11-07T08:42:41.665Z,100.00
2022-11-07T08:45:49.124Z,100.00
2022-11-07T08:48:54.659Z,100.00
2022-11-07T08:52:01.609Z,100.00
2022-11-07T08:55:07.971Z,100.00
2022-11-07T08:58:15.341Z,100.00
2022-11-07T09:01:20.851Z,100.00
2022-11-07T09:04:26.649Z,100.00
2022-11-07T09:07:32.048Z,100.00
2022-11-07T09:10:37.824Z,100.00
2022-11-07T09:13:43.430Z,100.00
2022-11-07T09:16:49.251Z,100.00
2022-11-07T09:19:54.782Z,100.00
2022-11-07T09:23:01.248Z,100.00
2022-11-07T09:26:08.187Z,100.00
2022-11-07T09:29:13.770Z,100.00
2022-11-07T09:32:43.516Z,100.00
2022-11-07T09:35:44.872Z,100.00
2022-11-07T09:38:51.122Z,100.00
2022-11-07T09:42:08.903Z,100.00
2022-11-07T09:45:15.046Z,100.00
2022-11-07T09:48:24.779Z,98.99
2022-11-07T09:51:37.088Z,98.24
2022-11-07T09:54:51.076Z,97.97
2022-11-07T09:58:02.532Z,98.58
2022-11-07T10:01:20.762Z,96.94
2022-11-07T10:04:27.066Z,96.21
2022-11-07T10:07:41.869Z,95.64
2022-11-07T10:10:58.981Z,93.67
2022-11-07T10:14:22.630Z,91.64
2022-11-07T10:17:50.302Z,97.67
2022-11-07T10:21:37.121Z,99.95
2022-11-07T10:25:19.426Z,100.00
2022-11-07T10:28:27.721Z,98.75
2022-11-07T10:31:39.819Z,98.45
2022-11-07T10:35:00.676Z,98.57
2022-11-07T10:38:25.525Z,98.01
2022-11-07T10:41:32.261Z,97.79
2022-11-07T10:44:42.099Z,98.06
2022-11-07T10:48:03.223Z,97.40
2022-11-07T10:51:08.691Z,96.64
2022-11-07T10:54:26.408Z,95.72
2022-11-07T10:57:34.615Z,94.55
2022-11-07T11:00:44.725Z,94.39
2022-11-07T11:03:51.024Z,92.80
2022-11-07T11:07:02.107Z,91.85
2022-11-07T11:10:21.270Z,91.23
2022-11-07T11:13:37.599Z,90.80
2022-11-07T11:16:43.921Z,90.83
2022-11-07T11:19:55.759Z,88.74
2022-11-07T11:23:02.639Z,88.06
2022-11-07T11:26:16.166Z,87.24
2022-11-07T11:29:42.167Z,87.82
2022-11-07T11:33:01.952Z,85.50
2022-11-07T11:36:24.670Z,85.65
2022-11-07T11:39:46.120Z,83.53
2022-11-07T11:43:01.249Z,84.42
2022-11-07T11:46:28.053Z,84.37
2022-11-07T11:49:43.742Z,82.23
2022-11-07T11:52:49.701Z,80.80
2022-11-07T11:56:09.299Z,80.90
2022-11-07T11:59:27.091Z,80.88
2022-11-07T12:02:53.479Z,83.73
2022-11-07T12:06:26.638Z,80.94
2022-11-07T12:09:35.328Z,79.76
2022-11-07T12:12:43.339Z,76.72
2022-11-07T12:16:12.796Z,74.93
2022-11-07T12:19:21.325Z,76.75
2022-11-07T12:22:48.284Z,77.51
2022-11-07T12:26:37.139Z,77.18
2022-11-07T12:30:10.582Z,78.10
2022-11-07T12:33:27.986Z,77.39
2022-11-07T12:36:52.531Z,75.65
2022-11-07T12:40:30.972Z,75.98
2022-11-07T12:43:45.348Z,75.33
2022-11-07T12:46:57.076Z,77.14
2022-11-07T12:51:04.022Z,76.86
2022-11-07T12:54:42.009Z,78.33
2022-11-07T12:58:07.395Z,77.97
2022-11-07T13:01:20.628Z,77.86
2022-11-07T13:04:54.964Z,77.95
2022-11-07T13:08:27.022Z,78.74
2022-11-07T13:11:58.267Z,78.40
2022-11-07T13:15:05.943Z,77.87
2022-11-07T13:18:37.307Z,78.72
2022-11-07T13:21:44.486Z,76.24
2022-11-07T13:25:16.290Z,76.88
2022-11-07T13:28:29.716Z,76.69
2022-11-07T13:31:39.089Z,73.78
2022-11-07T13:34:47.382Z,72.12
2022-11-07T13:38:15.908Z,70.85
2022-11-07T13:41:23.207Z,69.33
2022-11-07T13:44:35.776Z,69.10
2022-11-07T13:47:43.050Z,68.13
2022-11-07T13:51:18.379Z,66.72
2022-11-07T13:54:36.422Z,67.44
2022-11-07T13:57:46.338Z,67.58
2022-11-07T14:00:52.014Z,67.78
2022-11-07T14:03:57.748Z,69.12
2022-11-07T14:07:03.962Z,68.63
2022-11-07T14:10:31.119Z,68.84
2022-11-07T14:13:41.491Z,70.88
2022-11-07T14:16:47.535Z,69.60
2022-11-07T14:19:53.322Z,68.88
2022-11-07T14:23:01.393Z,69.86
2022-11-07T14:26:31.180Z,70.31
2022-11-07T14:29:36.778Z,71.11
2022-11-07T14:32:52.447Z,71.92
2022-11-07T14:36:06.403Z,71.79
2022-11-07T14:39:15.941Z,72.22
2022-11-07T14:42:25.839Z,72.16
2022-11-07T14:46:06.122Z,72.95
2022-11-07T14:48:57.689Z,72.25
2022-11-07T14:52:03.284Z,72.41
2022-11-07T14:55:41.804Z,72.29
2022-11-07T14:58:47.604Z,74.18
2022-11-07T15:01:59.874Z,74.39
2022-11-07T15:05:11.008Z,75.60
2022-11-07T15:08:30.492Z,76.90
2022-11-07T15:11:38.562Z,77.99
2022-11-07T15:14:44.292Z,80.77
2022-11-07T15:17:52.722Z,82.99
2022-11-07T15:21:00.276Z,82.12
2022-11-07T15:24:30.403Z,84.55
2022-11-07T15:27:40.739Z,86.00
2022-11-07T15:30:47.477Z,87.67
2022-11-07T15:33:55.510Z,89.18
2022-11-07T15:37:01.091Z,87.46
2022-11-07T15:40:17.437Z,87.96
2022-11-07T15:43:23.331Z,89.58
2022-11-07T15:46:34.978Z,92.61
2022-11-07T15:49:40.519Z,93.11
2022-11-07T15:52:47.727Z,94.65
2022-11-07T15:56:01.719Z,97.98
2022-11-07T15:59:19.837Z,98.17
2022-11-07T16:02:25.571Z,100.00
2022-11-07T16:05:31.550Z,100.00
2022-11-07T16:08:36.982Z,97.18
2022-11-07T16:11:42.090Z,98.38
2022-11-07T16:14:47.314Z,100.00
2022-11-07T16:17:52.762Z,100.00
2022-11-07T16:20:58.802Z,100.00
2022-11-07T16:24:04.614Z,100.00
2022-11-07T16:27:16.198Z,100.00
2022-11-07T16:30:22.790Z,100.00
2022-11-07T16:33:29.793Z,100.00
2022-11-07T16:36:36.398Z,100.00
2022-11-07T16:39:41.905Z,100.00
2022-11-07T16:42:48.386Z,100.00
2022-11-07T16:45:56.370Z,100.00
2022-11-07T16:49:14.156Z,100.00
2022-11-07T16:52:20.202Z,100.00
2022-11-07T16:55:25.693Z,100.00
2022-11-07T16:58:35.909Z,100.00
2022-11-07T17:01:41.846Z,100.00
2022-11-07T17:04:48.058Z,100.00
2022-11-07T17:07:56.119Z,100.00
2022-11-07T17:11:01.876Z,100.00
2022-11-07T17:14:07.507Z,100.00
2022-11-07T17:17:15.487Z,100.00
2022-11-07T17:20:49.291Z,100.00
2022-11-07T17:23:49.639Z,100.00
2022-11-07T17:26:55.555Z,100.00
2022-11-07T17:30:03.340Z,100.00
2022-11-07T17:33:15.367Z,100.00
2022-11-07T17:36:36.346Z,100.00
2022-11-07T17:39:46.030Z,100.00
2022-11-07T17:42:51.072Z,100.00
2022-11-07T17:45:56.836Z,100.00
2022-11-07T17:49:08.337Z,100.00
2022-11-07T17:52:13.971Z,100.00
2022-11-07T17:55:21.411Z,100.00
2022-11-07T17:58:26.951Z,100.00
2022-11-07T18:01:35.151Z,100.00
2022-11-07T18:04:41.726Z,100.00
2022-11-07T18:07:47.930Z,100.00
2022-11-07T18:11:01.027Z,100.00
2022-11-07T18:14:06.641Z,100.00
2022-11-07T18:17:11.887Z,100.00
2022-11-07T18:20:17.726Z,100.00
2022-11-07T18:23:23.412Z,100.00
2022-11-07T18:26:31.334Z,100.00
2022-11-07T18:29:36.621Z,100.00
2022-11-07T18:32:43.147Z,100.00
2022-11-07T18:35:49.230Z,100.00
2022-11-07T18:38:54.763Z,100.00
2022-11-07T18:42:00.625Z,100.00
2022-11-07T18:45:06.230Z,100.00
2022-11-07T18:48:11.771Z,100.00
2022-11-07T18:51:21.476Z,100.00
2022-11-07T18:54:27.326Z,100.00
2022-11-07T18:57:33.065Z,100.00
2022-11-07T19:00:38.903Z,100.00
2022-11-07T19:03:45.481Z,100.00
2022-11-07T19:07:00.166Z,100.00
2022-11-07T19:10:06.509Z,100.00
2022-11-07T19:13:11.881Z,100.00
2022-11-07T19:16:19.083Z,100.00
2022-11-07T19:19:24.563Z,100.00
2022-11-07T19:22:31.465Z,100.00
2022-11-07T19:25:40.055Z,100.00
2022-11-07T19:28:45.346Z,100.00
2022-11-07T19:31:51.162Z,100.00
2022-11-07T19:34:57.406Z,100.00
2022-11-07T19:38:08.714Z,100.00
2022-11-07T19:41:16.540Z,100.00
2022-11-07T19:44:22.174Z,100.00
2022-11-07T19:47:29.675Z,100.00
2022-11-07T19:50:35.225Z,100.00
2022-11-07T19:53:41.242Z,100.00
2022-11-07T19:56:47.055Z,100.00
2022-11-07T19:59:53.067Z,100.00
2022-11-07T20:02:58.896Z,100.00
2022-11-07T20:06:04.403Z,100.00
2022-11-07T20:12:37.217Z,100.00
2022-11-07T20:15:43.089Z,100.00
2022-11-07T20:18:49.409Z,100.00
2022-11-07T20:21:54.758Z,100.00
2022-11-07T20:25:00.752Z,100.00
2022-11-07T20:28:06.579Z,100.00
2022-11-07T20:31:18.086Z,100.00
2022-11-07T20:34:23.875Z,100.00
2022-11-07T20:37:29.386Z,100.00
2022-11-07T20:40:37.753Z,100.00
2022-11-07T20:43:45.016Z,100.00
2022-11-07T20:46:52.270Z,100.00
2022-11-07T20:49:57.914Z,100.00
2022-11-07T20:53:04.706Z,100.00
2022-11-07T20:56:10.764Z,100.00
2022-11-07T20:59:17.489Z,100.00
2022-11-07T21:02:24.368Z,100.00
2022-11-07T21:05:30.938Z,100.00
2022-11-07T21:08:44.261Z,100.00
2022-11-07T21:11:50.415Z,100.00
2022-11-07T21:14:56.189Z,100.00
2022-11-07T21:18:04.524Z,100.00
2022-11-07T21:21:22.849Z,100.00
2022-11-07T21:24:32.257Z,100.00
2022-11-07T21:27:38.046Z,100.00
2022-11-07T21:30:59.411Z,100.00
2022-11-07T21:34:07.897Z,100.00
2022-11-07T21:37:13.791Z,100.00
2022-11-07T21:40:19.720Z,100.00
2022-11-07T21:43:25.187Z,100.00
2022-11-07T21:46:34.851Z,100.00
2022-11-07T21:49:40.180Z,100.00
2022-11-07T21:52:46.303Z,100.00
2022-11-07T21:55:51.853Z,100.00
2022-11-07T21:59:00.628Z,100.00
2022-11-07T22:02:06.243Z,100.00
2022-11-07T22:05:15.694Z,100.00
2022-11-07T22:08:23.866Z,100.00
2022-11-07T22:11:29.893Z,100.00
2022-11-07T22:14:35.733Z,100.00
2022-11-07T22:17:41.433Z,100.00
2022-11-07T22:20:47.060Z,100.00
2022-11-07T22:23:52.760Z,100.00
2022-11-07T22:26:58.378Z,100.00
2022-11-07T22:30:05.262Z,100.00
2022-11-07T22:33:12.976Z,100.00
2022-11-07T22:36:19.730Z,100.00
2022-11-07T22:39:25.295Z,100.00
2022-11-07T22:42:31.200Z,100.00
2022-11-07T22:45:40.930Z,100.00
2022-11-07T22:48:48.393Z,100.00
2022-11-07T22:51:54.032Z,100.00
2022-11-07T22:54:59.761Z,100.00
2022-11-07T22:58:06.467Z,100.00
2022-11-07T23:01:22.612Z,100.00
2022-11-07T23:04:32.683Z,100.00
2022-11-07T23:07:39.854Z,100.00
2022-11-07T23:10:45.265Z,100.00
2022-11-07T23:13:52.380Z,100.00
2022-11-07T23:16:58.881Z,100.00
2022-11-07T23:20:05.615Z,100.00
2022-11-07T23:23:11.418Z,100.00
2022-11-07T23:26:19.071Z,100.00
2022-11-07T23:29:25.797Z,100.00
2022-11-07T23:32:31.879Z,100.00
2022-11-07T23:35:37.362Z,100.00
2022-11-07T23:38:45.017Z,100.00
2022-11-07T23:41:50.625Z,100.00
2022-11-07T23:45:15.141Z,100.00
2022-11-07T23:48:39.356Z,100.00
2022-11-07T23:51:47.017Z,100.00
2022-11-07T23:55:11.466Z,100.00
2022-11-07T23:58:35.871Z,100.00
